createdAt,value
2018-07-28T00:00:35.388Z,12.87
2018-07-28T00:03:03.793Z,13.30
2018-07-28T00:05:32.150Z,14.80
2018-07-28T00:08:00.511Z,12.73
2018-07-28T00:10:28.946Z,13.57
2018-07-28T00:12:57.366Z,14.53
2018-07-28T00:15:25.788Z,16.70
2018-07-28T00:17:54.200Z,18.20
2018-07-28T00:20:22.583Z,12.40
2018-07-28T00:22:51.001Z,15.23
2018-07-28T00:25:19.340Z,13.77
2018-07-28T00:27:47.689Z,12.63
2018-07-28T00:30:16.038Z,22.20
2018-07-28T00:32:44.430Z,16.00
2018-07-28T00:35:12.790Z,15.07
2018-07-28T00:37:41.211Z,13.47
2018-07-28T00:40:09.574Z,14.40
2018-07-28T00:42:38.465Z,11.40
2018-07-28T00:45:07.571Z,11.10
2018-07-28T00:47:35.930Z,17.23
2018-07-28T00:50:05.448Z,15.40
2018-07-28T00:52:33.833Z,14.63
2018-07-28T00:55:02.238Z,15.73
2018-07-28T00:57:30.586Z,12.90
2018-07-28T00:59:58.976Z,14.97
2018-07-28T01:02:27.373Z,17.47
2018-07-28T01:04:55.733Z,17.70
2018-07-28T01:07:24.959Z,14.47
2018-07-28T01:09:53.711Z,18.10
2018-07-28T01:12:22.074Z,17.40
2018-07-28T01:14:50.399Z,19.03
2018-07-28T01:17:18.813Z,18.20
2018-07-28T01:19:47.475Z,15.97
2018-07-28T01:22:15.849Z,18.37
2018-07-28T01:24:44.210Z,14.07
2018-07-28T01:27:12.567Z,14.70
2018-07-28T01:29:40.985Z,19.07
2018-07-28T01:32:09.416Z,15.03
2018-07-28T01:34:37.788Z,22.03
2018-07-28T01:37:06.176Z,15.83
2018-07-28T01:39:34.563Z,17.37
2018-07-28T01:42:03.026Z,17.67
2018-07-28T01:44:31.333Z,19.10
2018-07-28T01:46:59.727Z,16.37
2018-07-28T01:49:27.827Z,15.47
2018-07-28T01:51:56.358Z,18.50
2018-07-28T01:54:25.033Z,19.47
2018-07-28T01:56:53.436Z,21.23
2018-07-28T01:59:21.814Z,26.23
2018-07-28T02:01:50.220Z,19.97
2018-07-28T02:04:19.221Z,20.63
2018-07-28T02:06:47.641Z,31.97
2018-07-28T02:09:16.030Z,38.07
2018-07-28T02:11:44.760Z,31.20
2018-07-28T02:14:13.106Z,34.77
2018-07-28T02:16:41.515Z,27.17
2018-07-28T02:19:09.896Z,28.40
2018-07-28T02:21:38.260Z,32.43
2018-07-28T02:24:06.693Z,29.23
2018-07-28T02:26:35.125Z,32.43
2018-07-28T02:29:03.564Z,25.73
2018-07-28T02:31:31.972Z,27.90
2018-07-28T02:34:01.022Z,32.47
2018-07-28T02:36:30.062Z,26.23
2018-07-28T02:38:59.223Z,28.77
2018-07-28T02:41:28.223Z,19.27
2018-07-28T02:43:57.299Z,27.67
2018-07-28T02:46:25.703Z,22.70
2018-07-28T02:48:54.418Z,24.67
2018-07-28T02:51:22.827Z,24.40
2018-07-28T02:53:51.164Z,22.13
2018-07-28T02:56:19.265Z,20.83
2018-07-28T02:58:47.673Z,26.20
2018-07-28T03:01:16.078Z,21.50
2018-07-28T03:03:44.556Z,26.80
2018-07-28T03:06:12.905Z,24.23
2018-07-28T03:08:41.580Z,21.20
2018-07-28T03:11:10.085Z,25.70
2018-07-28T03:13:38.457Z,19.47
2018-07-28T03:16:10.627Z,20.20
2018-07-28T03:18:39.121Z,27.33
2018-07-28T03:21:07.549Z,24.57
2018-07-28T03:23:35.928Z,24.67
2018-07-28T03:26:04.317Z,22.23
2018-07-28T03:28:32.674Z,21.90
2018-07-28T03:31:01.012Z,23.43
2018-07-28T03:33:29.401Z,25.67
2018-07-28T03:35:57.834Z,17.93
2018-07-28T03:38:26.172Z,17.40
2018-07-28T03:40:54.562Z,22.27
2018-07-28T03:43:22.992Z,20.90
2018-07-28T03:45:51.416Z,23.23
2018-07-28T03:48:20.383Z,25.90
2018-07-28T03:50:48.760Z,22.97
2018-07-28T03:53:17.116Z,19.97
2018-07-28T03:55:45.434Z,25.47
2018-07-28T03:58:13.754Z,24.20
2018-07-28T04:00:42.098Z,22.17
2018-07-28T04:03:10.534Z,20.17
2018-07-28T04:05:38.900Z,25.13
2018-07-28T04:08:07.231Z,23.80
2018-07-28T04:10:35.589Z,19.97
2018-07-28T04:13:04.324Z,25.30
2018-07-28T04:15:32.472Z,22.83
2018-07-28T04:18:00.857Z,24.90
2018-07-28T04:20:29.875Z,20.10
2018-07-28T04:22:58.228Z,20.40
2018-07-28T04:25:26.963Z,22.50
2018-07-28T04:27:55.340Z,20.77
2018-07-28T04:30:23.735Z,19.03
2018-07-28T04:32:52.124Z,20.57
2018-07-28T04:35:20.477Z,20.87
2018-07-28T04:37:49.456Z,20.57
2018-07-28T04:40:17.831Z,19.63
2018-07-28T04:42:46.542Z,18.90
2018-07-28T04:45:15.190Z,17.23
2018-07-28T04:47:43.637Z,19.27
2018-07-28T04:50:12.047Z,21.17
2018-07-28T04:52:40.143Z,17.40
2018-07-28T04:55:08.616Z,16.77
2018-07-28T04:57:37.094Z,15.40
2018-07-28T05:00:06.120Z,20.70
2018-07-28T05:02:34.499Z,18.17
2018-07-28T05:14:00.223Z,26.13
2018-07-28T05:16:28.560Z,21.17
2018-07-28T05:18:57.241Z,24.27
2018-07-28T05:21:25.609Z,28.93
2018-07-28T05:23:53.989Z,19.70
2018-07-28T05:26:22.311Z,20.87
2018-07-28T05:28:50.673Z,26.27
2018-07-28T05:31:21.379Z,24.17
2018-07-28T05:33:49.913Z,25.40
2018-07-28T05:36:18.303Z,35.00
2018-07-28T05:38:46.683Z,31.40
2018-07-28T05:41:15.110Z,31.13
2018-07-28T05:43:43.808Z,36.17
2018-07-28T05:46:12.229Z,33.47
2018-07-28T05:48:40.837Z,30.57
2018-07-28T05:51:09.221Z,32.60
2018-07-28T05:53:39.343Z,35.63
2018-07-28T05:56:10.054Z,36.97
2018-07-28T05:58:38.545Z,32.07
2018-07-28T06:01:07.320Z,28.03
2018-07-28T06:03:35.825Z,29.27
2018-07-28T06:06:04.283Z,26.73
2018-07-28T06:08:32.682Z,30.67
2018-07-28T06:11:00.783Z,34.97
2018-07-28T06:13:29.085Z,27.53
2018-07-28T06:15:58.183Z,31.57
2018-07-28T06:18:26.925Z,32.17
2018-07-28T06:20:55.374Z,28.83
2018-07-28T06:23:23.766Z,31.77
2018-07-28T06:25:52.215Z,28.97
2018-07-28T06:28:20.520Z,32.20
2018-07-28T06:30:48.916Z,34.53
2018-07-28T06:33:17.425Z,30.23
2018-07-28T06:35:45.870Z,32.20
2018-07-28T06:38:14.311Z,29.47
2018-07-28T06:40:42.680Z,35.83
2018-07-28T06:43:11.369Z,35.10
2018-07-28T06:45:39.712Z,32.67
2018-07-28T06:48:08.094Z,25.03
2018-07-28T06:50:38.688Z,31.27
2018-07-28T06:53:07.289Z,28.97
2018-07-28T06:55:35.883Z,28.77
2018-07-28T06:58:04.753Z,37.87
2018-07-28T07:00:33.080Z,30.67
2018-07-28T07:03:01.497Z,30.20
2018-07-28T07:05:29.873Z,29.73
2018-07-28T07:07:58.346Z,31.27
2018-07-28T07:10:26.740Z,30.93
2018-07-28T07:12:55.108Z,27.87
2018-07-28T07:15:23.793Z,24.13
2018-07-28T07:17:52.208Z,31.57
2018-07-28T07:20:20.615Z,29.20
2018-07-28T07:22:49.056Z,32.53
2018-07-28T07:25:17.507Z,30.87
2018-07-28T07:27:45.880Z,33.10
2018-07-28T07:30:14.275Z,28.07
2018-07-28T07:32:42.679Z,31.43
2018-07-28T07:35:11.108Z,29.03
2018-07-28T07:37:39.515Z,29.13
2018-07-28T07:40:07.979Z,28.33
2018-07-28T07:42:36.494Z,28.10
2018-07-28T07:45:05.287Z,28.63
2018-07-28T07:47:33.734Z,26.77
2018-07-28T07:50:01.991Z,29.83
2018-07-28T07:52:30.405Z,28.60
2018-07-28T07:54:58.783Z,30.23
2018-07-28T07:57:27.199Z,33.90
2018-07-28T07:59:55.567Z,26.50
2018-07-28T08:02:23.664Z,31.10
2018-07-28T08:04:52.441Z,34.97
2018-07-28T08:07:20.776Z,34.47
2018-07-28T08:09:49.171Z,29.60
2018-07-28T08:12:17.549Z,26.00
2018-07-28T08:14:45.935Z,28.03
2018-07-28T08:17:14.393Z,31.43
2018-07-28T08:19:42.804Z,26.73
2018-07-28T08:22:11.176Z,33.13
2018-07-28T08:24:39.588Z,26.13
2018-07-28T08:27:07.972Z,30.83
2018-07-28T08:29:36.288Z,34.13
2018-07-28T08:32:04.759Z,31.30
2018-07-28T08:34:33.466Z,35.37
2018-07-28T08:37:01.914Z,33.27
2018-07-28T08:39:30.328Z,32.70
2018-07-28T08:41:59.012Z,29.77
2018-07-28T08:44:27.331Z,26.50
2018-07-28T08:46:56.232Z,37.30
2018-07-28T08:49:24.685Z,26.80
2018-07-28T08:51:53.414Z,27.70
2018-07-28T08:54:21.798Z,31.80
2018-07-28T08:56:50.511Z,35.07
2018-07-28T08:59:18.935Z,31.10
2018-07-28T09:01:47.313Z,33.80
2018-07-28T09:04:16.021Z,33.23
2018-07-28T09:06:44.412Z,33.87
2018-07-28T09:09:13.108Z,35.67
2018-07-28T09:11:41.455Z,30.03
2018-07-28T09:14:10.523Z,37.53
2018-07-28T09:16:38.926Z,31.60
2018-07-28T09:19:07.342Z,36.53
2018-07-28T09:21:35.784Z,32.73
2018-07-28T09:24:04.488Z,35.37
2018-07-28T09:26:32.906Z,25.77
2018-07-28T09:29:01.877Z,26.63
2018-07-28T09:31:30.652Z,25.30
2018-07-28T09:33:59.142Z,28.33
2018-07-28T09:36:27.807Z,25.97
2018-07-28T09:38:56.235Z,26.87
2018-07-28T09:41:24.707Z,25.87
2018-07-28T09:43:53.154Z,23.10
2018-07-28T09:46:21.577Z,25.43
2018-07-28T09:48:50.873Z,18.07
2018-07-28T09:51:19.308Z,15.80
2018-07-28T09:53:47.699Z,18.10
2018-07-28T09:56:16.090Z,16.43
2018-07-28T09:58:44.827Z,14.87
2018-07-28T10:01:18.226Z,19.13
2018-07-28T10:03:47.273Z,15.40
2018-07-28T10:06:15.703Z,22.60
2018-07-28T10:08:44.174Z,19.43
2018-07-28T10:11:12.627Z,17.67
2018-07-28T10:13:41.214Z,21.23
2018-07-28T10:16:09.702Z,21.17
2018-07-28T10:18:38.334Z,19.47
2018-07-28T10:21:06.713Z,17.73
2018-07-28T10:23:35.079Z,18.07
2018-07-28T10:26:04.041Z,21.03
2018-07-28T10:28:32.460Z,21.50
2018-07-28T10:31:00.884Z,19.27
2018-07-28T10:33:29.553Z,19.97
2018-07-28T10:35:58.260Z,21.00
2018-07-28T10:38:26.612Z,21.07
2018-07-28T10:40:55.066Z,26.83
2018-07-28T10:43:23.553Z,20.87
2018-07-28T10:45:52.021Z,21.37
2018-07-28T10:48:20.417Z,22.80
2018-07-28T10:50:48.777Z,19.07
2018-07-28T10:53:17.174Z,22.80
2018-07-28T10:55:45.572Z,18.03
2018-07-28T10:58:13.957Z,14.87
2018-07-28T11:00:42.240Z,14.37
2018-07-28T11:03:10.675Z,14.50
2018-07-28T11:05:39.128Z,15.53
2018-07-28T11:08:07.595Z,13.90
2018-07-28T11:10:35.721Z,14.30
2018-07-28T11:13:04.136Z,11.93
2018-07-28T11:15:32.578Z,8.53
2018-07-28T11:18:00.988Z,8.23
2018-07-28T11:20:29.368Z,7.17
2018-07-28T11:22:57.811Z,6.57
2018-07-28T11:25:26.289Z,7.30
2018-07-28T11:27:54.991Z,7.00
2018-07-28T11:30:23.488Z,8.03
2018-07-28T11:33:03.329Z,7.60
2018-07-28T11:35:43.079Z,7.30
2018-07-28T11:38:22.684Z,8.07
2018-07-28T11:41:02.368Z,9.73
2018-07-28T11:43:42.396Z,7.47
2018-07-28T11:46:10.866Z,7.57
2018-07-28T11:48:39.659Z,9.53
2018-07-28T11:51:08.217Z,8.60
2018-07-28T11:53:36.573Z,6.10
2018-07-28T11:56:05.482Z,6.57
2018-07-28T11:58:34.177Z,6.50
2018-07-28T12:01:03.097Z,7.10
2018-07-28T12:03:32.595Z,6.70
2018-07-28T12:06:00.980Z,6.40
2018-07-28T12:08:29.325Z,6.40
2018-07-28T12:10:57.689Z,6.73
2018-07-28T12:13:25.998Z,10.10
2018-07-28T12:15:54.326Z,5.77
2018-07-28T12:18:22.703Z,6.37
2018-07-28T12:20:51.072Z,6.40
2018-07-28T12:23:19.501Z,5.93
2018-07-28T12:25:47.917Z,5.47
2018-07-28T12:28:16.279Z,5.10
2018-07-28T12:30:44.645Z,6.10
2018-07-28T12:33:13.152Z,6.00
2018-07-28T12:35:41.500Z,5.53
2018-07-28T12:38:09.890Z,5.27
2018-07-28T12:40:38.283Z,5.23
2018-07-28T12:43:06.695Z,8.70
2018-07-28T12:45:35.029Z,12.00
2018-07-28T12:48:03.359Z,9.30
2018-07-28T12:50:31.696Z,12.53
2018-07-28T12:53:00.044Z,12.67
2018-07-28T12:55:28.414Z,12.60
2018-07-28T12:57:56.720Z,9.77
2018-07-28T13:00:25.047Z,11.20
2018-07-28T13:02:53.373Z,14.00
2018-07-28T13:05:21.730Z,15.50
2018-07-28T13:07:50.071Z,12.30
2018-07-28T13:10:18.448Z,8.17
2018-07-28T13:12:46.880Z,11.67
2018-07-28T13:15:15.212Z,11.57
2018-07-28T13:17:43.577Z,10.37
2018-07-28T13:20:11.910Z,12.17
2018-07-28T13:22:40.265Z,11.47
2018-07-28T13:25:08.608Z,12.33
2018-07-28T13:27:36.994Z,10.53
2018-07-28T13:30:05.970Z,12.67
2018-07-28T13:32:34.286Z,17.90
2018-07-28T13:35:02.667Z,15.50
2018-07-28T13:37:31.013Z,11.70
2018-07-28T13:39:59.386Z,15.83
2018-07-28T13:42:27.745Z,9.97
2018-07-28T13:44:56.117Z,13.87
2018-07-28T13:47:24.444Z,11.97
2018-07-28T13:49:52.750Z,9.07
2018-07-28T13:52:21.058Z,10.23
2018-07-28T13:54:49.427Z,8.57
2018-07-28T13:57:17.779Z,10.40
2018-07-28T13:59:46.120Z,13.17
2018-07-28T14:02:14.541Z,14.57
2018-07-28T14:04:42.878Z,12.83
2018-07-28T14:07:11.228Z,13.17
2018-07-28T14:09:39.558Z,9.67
2018-07-28T14:12:08.201Z,12.07
2018-07-28T14:14:36.580Z,13.53
2018-07-28T14:17:05.048Z,8.97
2018-07-28T14:19:33.367Z,9.80
2018-07-28T14:22:01.722Z,13.93
2018-07-28T14:24:30.085Z,13.23
2018-07-28T14:26:58.436Z,7.40
2018-07-28T14:29:26.790Z,8.33
2018-07-28T14:31:55.105Z,8.00
2018-07-28T14:34:23.427Z,7.87
2018-07-28T14:36:51.842Z,13.13
2018-07-28T14:39:20.170Z,8.17
2018-07-28T14:41:48.523Z,10.30
2018-07-28T14:44:16.908Z,11.83
2018-07-28T14:46:45.376Z,11.50
2018-07-28T14:49:13.440Z,11.17
2018-07-28T14:51:41.868Z,14.03
2018-07-28T14:54:10.168Z,9.17
2018-07-28T14:56:38.561Z,7.53
2018-07-28T14:59:07.198Z,10.93
2018-07-28T15:01:35.535Z,9.80
2018-07-28T15:04:03.877Z,12.60
2018-07-28T15:06:32.232Z,11.43
2018-07-28T15:09:00.553Z,10.57
2018-07-28T15:11:28.863Z,6.40
2018-07-28T15:13:57.286Z,10.43
2018-07-28T15:16:25.569Z,12.57
2018-07-28T15:18:53.890Z,12.23
2018-07-28T15:21:22.297Z,8.37
2018-07-28T15:23:50.615Z,10.30
2018-07-28T15:26:18.948Z,8.10
2018-07-28T15:28:48.574Z,9.13
2018-07-28T15:31:16.910Z,9.23
2018-07-28T15:33:45.259Z,9.87
2018-07-28T15:36:13.593Z,10.90
2018-07-28T15:38:41.981Z,9.03
2018-07-28T15:41:10.399Z,13.40
2018-07-28T15:43:38.738Z,9.27
2018-07-28T15:46:08.462Z,8.13
2018-07-28T15:48:36.980Z,10.53
2018-07-28T15:51:05.367Z,9.37
2018-07-28T15:53:33.765Z,10.43
2018-07-28T15:56:02.524Z,9.57
2018-07-28T15:58:30.861Z,8.60
2018-07-28T16:00:59.232Z,10.10
2018-07-28T16:03:27.552Z,8.70
2018-07-28T16:05:56.127Z,11.67
2018-07-28T16:08:24.509Z,10.60
2018-07-28T16:10:52.857Z,11.97
2018-07-28T16:13:21.259Z,13.20
2018-07-28T16:15:49.661Z,17.43
2018-07-28T16:18:18.079Z,12.13
2018-07-28T16:20:46.424Z,13.00
2018-07-28T16:23:14.795Z,15.80
2018-07-28T16:25:43.146Z,14.67
2018-07-28T16:28:11.515Z,13.43
2018-07-28T16:30:39.629Z,11.63
2018-07-28T16:33:08.017Z,13.50
2018-07-28T16:35:36.344Z,11.13
2018-07-28T16:38:04.473Z,8.27
2018-07-28T16:40:32.867Z,10.00
2018-07-28T16:43:01.164Z,11.30
2018-07-28T16:45:29.506Z,11.07
2018-07-28T16:47:57.851Z,9.37
2018-07-28T16:50:26.185Z,8.57
2018-07-28T16:52:54.556Z,7.53
2018-07-28T16:55:22.852Z,11.03
2018-07-28T16:57:51.172Z,8.23
2018-07-28T17:00:19.492Z,8.13
2018-07-28T17:02:47.866Z,8.13
2018-07-28T17:05:16.247Z,10.18
2018-07-28T17:07:44.321Z,7.30
2018-07-28T17:10:12.665Z,6.60
2018-07-28T17:12:41.073Z,8.23
2018-07-28T17:15:10.372Z,6.60
2018-07-28T17:17:38.702Z,7.80
2018-07-28T17:20:07.970Z,7.07
2018-07-28T17:22:36.443Z,7.90
2018-07-28T17:25:04.777Z,6.97
2018-07-28T17:27:33.155Z,7.80
2018-07-28T17:30:01.524Z,10.80
2018-07-28T17:32:29.961Z,6.80
2018-07-28T17:34:58.670Z,6.17
2018-07-28T17:37:27.138Z,7.67
2018-07-28T17:39:56.330Z,6.47
2018-07-28T17:42:24.861Z,9.00
2018-07-28T17:44:53.266Z,5.90
2018-07-28T17:47:21.635Z,8.20
2018-07-28T17:49:49.997Z,5.37
2018-07-28T17:52:18.123Z,7.00
2018-07-28T17:54:46.512Z,6.70
2018-07-28T17:57:15.008Z,10.30
2018-07-28T17:59:43.381Z,9.77
2018-07-28T18:02:12.054Z,5.47
2018-07-28T18:04:40.407Z,8.87
2018-07-28T18:07:08.713Z,7.90
2018-07-28T18:09:37.121Z,7.30
2018-07-28T18:12:05.557Z,5.50
2018-07-28T18:14:33.756Z,5.57
2018-07-28T18:17:02.099Z,6.60
2018-07-28T18:19:30.451Z,6.43
2018-07-28T18:21:58.902Z,6.87
2018-07-28T18:24:27.272Z,6.50
2018-07-28T18:26:55.795Z,4.80
2018-07-28T18:29:24.161Z,9.03
2018-07-28T18:31:52.524Z,7.90
2018-07-28T18:34:20.900Z,7.47
2018-07-28T18:36:49.270Z,6.00
2018-07-28T18:39:17.637Z,9.30
2018-07-28T18:41:46.064Z,10.33
2018-07-28T18:44:14.413Z,7.63
2018-07-28T18:46:42.792Z,7.17
2018-07-28T18:49:11.152Z,4.30
2018-07-28T18:51:39.504Z,8.63
2018-07-28T18:54:07.848Z,8.13
2018-07-28T18:56:36.263Z,8.87
2018-07-28T18:59:04.713Z,5.67
2018-07-28T19:01:33.049Z,5.40
2018-07-28T19:04:01.423Z,7.50
2018-07-28T19:06:29.838Z,11.87
2018-07-28T19:09:03.590Z,3.27
2018-07-28T19:11:31.941Z,5.77
2018-07-28T19:14:05.661Z,4.33
2018-07-28T19:16:34.093Z,6.67
2018-07-28T19:19:07.834Z,9.40
2018-07-28T19:21:36.235Z,5.00
2018-07-28T19:24:04.634Z,10.27
2018-07-28T19:26:33.077Z,5.90
2018-07-28T19:29:06.791Z,5.40
2018-07-28T19:31:35.212Z,3.10
2018-07-28T19:34:03.649Z,6.37
2018-07-28T19:36:37.412Z,4.23
2018-07-28T19:39:07.701Z,3.70
2018-07-28T19:41:41.572Z,6.57
2018-07-28T19:44:10.506Z,4.33
2018-07-28T19:46:38.909Z,6.13
2018-07-28T19:49:07.823Z,6.20
2018-07-28T19:51:36.248Z,4.30
2018-07-28T19:54:04.790Z,3.60
2018-07-28T19:56:33.313Z,3.87
2018-07-28T19:59:01.730Z,7.27
2018-07-28T20:01:30.199Z,7.23
2018-07-28T20:03:58.584Z,4.33
2018-07-28T20:06:26.961Z,6.70
2018-07-28T20:08:55.350Z,3.63
2018-07-28T20:11:23.784Z,5.20
2018-07-28T20:13:52.203Z,4.87
2018-07-28T20:16:20.615Z,8.57
2018-07-28T20:18:48.967Z,6.67
2018-07-28T20:21:17.404Z,8.43
2018-07-28T20:23:45.822Z,4.50
2018-07-28T20:26:14.244Z,8.17
2018-07-28T20:28:42.654Z,6.77
2018-07-28T20:31:11.073Z,3.40
2018-07-28T20:33:39.491Z,7.33
2018-07-28T20:36:07.875Z,6.57
2018-07-28T20:38:36.290Z,6.90
2018-07-28T20:41:04.708Z,4.77
2018-07-28T20:43:33.159Z,4.83
2018-07-28T20:46:01.526Z,5.70
2018-07-28T20:48:29.900Z,6.93
2018-07-28T20:50:58.365Z,5.27
2018-07-28T20:53:26.731Z,9.77
2018-07-28T20:55:55.144Z,5.17
2018-07-28T20:58:23.230Z,7.57
2018-07-28T21:00:51.734Z,8.63
2018-07-28T21:03:20.145Z,5.40
2018-07-28T21:05:48.488Z,5.13
2018-07-28T21:08:16.869Z,5.53
2018-07-28T21:10:45.243Z,7.87
2018-07-28T21:13:13.588Z,6.80
2018-07-28T21:15:41.936Z,6.57
2018-07-28T21:18:10.308Z,4.07
2018-07-28T21:20:38.743Z,5.90
2018-07-28T21:23:07.100Z,3.97
2018-07-28T21:25:35.528Z,7.20
2018-07-28T21:28:03.927Z,7.03
2018-07-28T21:30:32.355Z,5.37
2018-07-28T21:33:00.747Z,6.23
2018-07-28T21:35:29.128Z,4.87
2018-07-28T21:37:57.544Z,4.07
2018-07-28T21:40:25.949Z,7.20
2018-07-28T21:42:54.343Z,5.70
2018-07-28T21:45:22.691Z,3.17
2018-07-28T21:47:51.076Z,9.03
2018-07-28T21:50:19.458Z,3.20
2018-07-28T21:52:47.830Z,3.97
2018-07-28T21:55:16.235Z,6.63
2018-07-28T21:57:44.661Z,3.90
2018-07-28T22:00:13.038Z,6.10
2018-07-28T22:02:41.396Z,7.80
2018-07-28T22:05:10.042Z,6.90
2018-07-28T22:07:38.411Z,4.87
2018-07-28T22:10:06.811Z,5.07
2018-07-28T22:12:35.200Z,11.40
2018-07-28T22:15:03.655Z,8.07
2018-07-28T22:17:32.083Z,5.23
2018-07-28T22:20:00.214Z,3.87
2018-07-28T22:22:28.668Z,7.23
2018-07-28T22:24:57.082Z,5.40
2018-07-28T22:27:25.450Z,6.40
2018-07-28T22:29:53.792Z,5.37
2018-07-28T22:32:22.102Z,4.30
2018-07-28T22:34:50.443Z,8.07
2018-07-28T22:37:18.823Z,12.47
2018-07-28T22:39:47.173Z,4.47
2018-07-28T22:42:15.546Z,4.63
2018-07-28T22:44:43.972Z,5.50
2018-07-28T22:47:12.354Z,7.40
2018-07-28T22:49:40.682Z,7.20
2018-07-28T22:52:09.068Z,5.60
2018-07-28T22:54:37.434Z,7.13
2018-07-28T22:57:05.843Z,6.40
2018-07-28T22:59:34.200Z,7.27
2018-07-28T23:02:02.561Z,5.83
2018-07-28T23:04:30.933Z,5.33
2018-07-28T23:06:59.279Z,4.93
2018-07-28T23:09:27.628Z,5.80
2018-07-28T23:11:55.699Z,7.40
2018-07-28T23:14:24.067Z,4.67
2018-07-28T23:16:52.417Z,7.33
2018-07-28T23:19:20.739Z,5.73
2018-07-28T23:21:49.124Z,6.93
2018-07-28T23:24:17.178Z,4.17
2018-07-28T23:26:45.572Z,6.73
2018-07-28T23:29:14.094Z,3.83
2018-07-28T23:31:42.506Z,7.93
2018-07-28T23:34:10.841Z,5.60
2018-07-28T23:36:39.235Z,5.23
2018-07-28T23:39:08.701Z,8.17
2018-07-28T23:41:37.264Z,5.03
2018-07-28T23:44:05.580Z,4.20
2018-07-28T23:46:33.885Z,4.87
2018-07-28T23:49:01.949Z,5.57
2018-07-28T23:51:30.286Z,6.27
2018-07-28T23:53:58.631Z,6.80
2018-07-28T23:56:27.023Z,6.90
2018-07-28T23:58:55.373Z,8.87
